createdAt,value
2023-05-12T00:02:55.997Z,11.83
2023-05-12T00:07:59.815Z,11.81
2023-05-12T00:13:01.516Z,11.80
2023-05-12T00:18:03.239Z,11.79
2023-05-12T00:23:05.059Z,11.77
2023-05-12T00:28:09.846Z,11.69
2023-05-12T00:33:14.021Z,11.52
2023-05-12T00:38:15.700Z,11.37
2023-05-12T00:43:17.451Z,11.17
2023-05-12T00:48:23.755Z,11.00
2023-05-12T00:53:37.570Z,10.95
2023-05-12T00:58:49.916Z,10.90
2023-05-12T01:03:54.099Z,10.78
2023-05-12T01:09:04.866Z,10.74
2023-05-12T01:14:06.549Z,10.75
2023-05-12T01:19:19.103Z,10.85
2023-05-12T01:24:21.648Z,10.92
2023-05-12T01:29:26.023Z,10.96
2023-05-12T01:34:28.254Z,10.97
2023-05-12T01:39:32.676Z,10.92
2023-05-12T01:44:34.477Z,10.83
2023-05-12T01:49:38.465Z,10.76
2023-05-12T01:54:42.642Z,10.78
2023-05-12T01:59:45.345Z,10.80
2023-05-12T02:04:47.420Z,10.84
2023-05-12T02:09:52.176Z,10.84
2023-05-12T02:14:54.182Z,10.87
2023-05-12T02:19:56.452Z,10.89
2023-05-12T02:24:59.052Z,10.95
2023-05-12T02:30:01.434Z,10.96
2023-05-12T02:35:08.207Z,10.98
2023-05-12T02:40:11.930Z,11.01
2023-05-12T02:45:17.272Z,11.19
2023-05-12T02:50:22.196Z,11.20
2023-05-12T02:55:24.406Z,11.23
2023-05-12T03:00:28.397Z,11.24
2023-05-12T03:05:32.434Z,11.28
2023-05-12T03:10:34.441Z,11.28
2023-05-12T03:15:36.745Z,11.27
2023-05-12T03:20:41.240Z,11.29
2023-05-12T03:25:47.556Z,11.29
2023-05-12T03:30:49.249Z,11.29
2023-05-12T03:35:58.026Z,11.31
2023-05-12T03:41:04.229Z,11.31
2023-05-12T03:46:08.410Z,11.33
2023-05-12T03:51:14.307Z,11.33
2023-05-12T03:56:18.392Z,11.37
2023-05-12T04:01:22.800Z,11.39
2023-05-12T04:06:29.016Z,11.41
2023-05-12T04:11:32.256Z,11.41
2023-05-12T04:16:37.877Z,11.70
2023-05-12T04:21:39.685Z,11.63
2023-05-12T04:26:43.733Z,11.62
2023-05-12T04:31:45.589Z,11.60
2023-05-12T04:36:47.665Z,11.61
2023-05-12T04:41:49.451Z,11.63
2023-05-12T04:46:56.322Z,11.64
2023-05-12T04:51:58.432Z,11.68
2023-05-12T04:57:00.197Z,11.72
2023-05-12T05:02:04.415Z,11.78
2023-05-12T05:07:13.505Z,11.83
2023-05-12T05:12:20.278Z,11.88
2023-05-12T05:17:23.159Z,11.92
2023-05-12T05:22:29.970Z,11.97
2023-05-12T05:27:33.949Z,12.03
2023-05-12T05:32:41.231Z,12.11
2023-05-12T05:37:45.095Z,12.18
2023-05-12T05:42:49.162Z,12.20
2023-05-12T05:47:53.172Z,12.30
2023-05-12T05:52:59.044Z,12.38
2023-05-12T05:58:03.661Z,12.49
2023-05-12T06:03:05.674Z,12.57
2023-05-12T06:08:13.164Z,12.65
2023-05-12T06:13:14.960Z,12.76
2023-05-12T06:18:20.976Z,12.88
2023-05-12T06:23:24.946Z,13.01
2023-05-12T06:28:28.676Z,13.15
2023-05-12T06:33:32.764Z,13.28
2023-05-12T06:38:36.816Z,13.37
2023-05-12T06:43:43.408Z,13.51
2023-05-12T06:48:48.768Z,13.68
2023-05-12T06:53:50.565Z,13.89
2023-05-12T06:58:52.699Z,14.11
2023-05-12T07:04:02.515Z,14.33
2023-05-12T07:09:04.467Z,14.55
2023-05-12T07:14:06.267Z,14.85
2023-05-12T07:19:09.606Z,15.17
2023-05-12T07:24:11.595Z,15.54
2023-05-12T07:29:15.479Z,15.79
2023-05-12T07:34:17.379Z,16.03
2023-05-12T07:39:23.825Z,16.24
2023-05-12T07:44:26.366Z,16.48
2023-05-12T07:49:28.032Z,16.72
2023-05-12T07:54:29.733Z,16.86
2023-05-12T07:59:36.008Z,16.65
2023-05-12T08:04:37.800Z,16.67
2023-05-12T08:09:39.509Z,17.25
2023-05-12T08:14:41.334Z,17.71
2023-05-12T08:19:43.110Z,17.71
2023-05-12T08:24:46.030Z,17.67
2023-05-12T08:29:52.264Z,17.41
2023-05-12T08:34:54.471Z,17.35
2023-05-12T08:40:01.605Z,17.38
2023-05-12T08:45:04.296Z,17.33
2023-05-12T08:50:06.599Z,17.22
2023-05-12T08:55:09.610Z,17.29
2023-05-12T09:00:21.992Z,17.46
2023-05-12T09:05:24.388Z,17.67
2023-05-12T09:10:35.033Z,18.06
2023-05-12T09:15:43.026Z,18.22
2023-05-12T09:20:44.823Z,18.58
2023-05-12T09:25:49.324Z,18.85
2023-05-12T09:30:50.989Z,19.14
2023-05-12T09:35:55.002Z,19.59
2023-05-12T09:40:56.715Z,19.83
2023-05-12T09:46:07.188Z,20.06
2023-05-12T09:51:11.475Z,20.34
2023-05-12T09:56:16.924Z,20.60
2023-05-12T10:01:24.389Z,20.66
2023-05-12T10:06:30.103Z,20.62
2023-05-12T10:11:32.051Z,20.77
2023-05-12T10:16:34.198Z,20.90
2023-05-12T10:21:40.054Z,20.94
2023-05-12T10:26:42.960Z,20.89
2023-05-12T10:31:45.432Z,21.03
2023-05-12T10:36:52.274Z,20.99
2023-05-12T10:42:01.884Z,20.93
2023-05-12T10:47:15.095Z,20.90
2023-05-12T10:52:20.181Z,20.91
2023-05-12T10:57:22.282Z,20.90
2023-05-12T11:02:34.444Z,20.94
2023-05-12T11:07:41.864Z,21.00
2023-05-12T11:12:44.751Z,21.15
2023-05-12T11:17:48.971Z,21.26
2023-05-12T11:22:51.227Z,21.39
2023-05-12T11:27:52.910Z,21.44
2023-05-12T11:33:02.327Z,21.69
2023-05-12T11:38:15.756Z,21.85
2023-05-12T11:43:20.745Z,22.06
2023-05-12T11:48:22.577Z,22.24
2023-05-12T11:53:29.310Z,22.59
2023-05-12T11:58:31.032Z,23.24
2023-05-12T12:03:45.027Z,24.53
2023-05-12T12:09:00.183Z,26.14
2023-05-12T12:14:04.898Z,27.44
2023-05-12T12:19:07.436Z,28.04
2023-05-12T12:24:09.194Z,28.81
2023-05-12T12:29:11.198Z,29.80
2023-05-12T12:34:15.748Z,30.40
2023-05-12T12:39:21.762Z,31.36
2023-05-12T12:44:25.759Z,32.17
2023-05-12T12:49:29.662Z,33.23
2023-05-12T12:54:31.453Z,33.93
2023-05-12T12:59:35.546Z,34.19
2023-05-12T13:04:37.708Z,35.12
2023-05-12T13:09:41.829Z,36.23
2023-05-12T13:14:43.506Z,33.32
2023-05-12T13:19:45.410Z,31.06
2023-05-12T13:24:49.656Z,29.49
2023-05-12T13:29:51.946Z,28.19
2023-05-12T13:34:56.676Z,27.89
2023-05-12T13:40:00.876Z,29.67
2023-05-12T13:45:02.773Z,29.78
2023-05-12T13:50:07.719Z,29.19
2023-05-12T13:55:10.985Z,31.88
2023-05-12T14:00:18.848Z,31.86
2023-05-12T14:05:20.807Z,31.09
2023-05-12T14:10:25.132Z,30.96
2023-05-12T14:15:44.349Z,33.16
2023-05-12T14:20:52.949Z,33.24
2023-05-12T14:25:57.251Z,35.56
2023-05-12T14:30:59.030Z,36.67
2023-05-12T14:36:08.731Z,35.04
2023-05-12T14:41:11.146Z,32.48
2023-05-12T14:46:12.920Z,31.91
2023-05-12T14:51:14.623Z,35.82
2023-05-12T14:56:19.120Z,36.97
2023-05-12T15:01:23.223Z,38.27
2023-05-12T15:06:27.193Z,38.90
2023-05-12T15:11:29.522Z,39.18
2023-05-12T15:16:32.946Z,40.23
2023-05-12T15:21:35.479Z,40.07
2023-05-12T15:26:40.268Z,39.78
2023-05-12T15:31:45.663Z,39.49
2023-05-12T15:36:52.615Z,39.69
2023-05-12T15:41:56.892Z,39.69
2023-05-12T15:46:58.855Z,39.98
2023-05-12T15:52:02.890Z,40.01
2023-05-12T15:57:06.420Z,39.78
2023-05-12T16:02:08.351Z,39.68
2023-05-12T16:07:10.459Z,39.92
2023-05-12T16:12:15.286Z,39.61
2023-05-12T16:17:19.235Z,39.81
2023-05-12T16:22:23.382Z,39.71
2023-05-12T16:27:25.501Z,39.87
2023-05-12T16:32:29.786Z,39.93
2023-05-12T16:37:33.645Z,39.50
2023-05-12T16:42:37.692Z,39.26
2023-05-12T16:47:39.572Z,38.84
2023-05-12T16:52:48.923Z,36.90
2023-05-12T16:57:51.100Z,35.19
2023-05-12T17:02:53.326Z,33.68
2023-05-12T17:07:57.561Z,30.84
2023-05-12T17:12:59.272Z,28.95
2023-05-12T17:18:01.320Z,26.85
2023-05-12T17:23:05.663Z,25.80
2023-05-12T17:28:07.351Z,24.95
2023-05-12T17:33:13.019Z,24.26
2023-05-12T17:38:19.251Z,23.69
2023-05-12T17:43:23.540Z,22.98
2023-05-12T17:48:26.457Z,22.52
2023-05-12T17:53:31.429Z,22.10
2023-05-12T17:58:35.190Z,21.74
2023-05-12T18:03:37.986Z,21.52
2023-05-12T18:08:40.240Z,21.13
2023-05-12T18:13:42.304Z,20.85
2023-05-12T18:18:45.933Z,20.63
2023-05-12T18:23:50.290Z,20.45
2023-05-12T18:28:54.081Z,20.19
2023-05-12T18:33:58.286Z,19.91
2023-05-12T18:38:59.962Z,19.70
2023-05-12T18:44:04.686Z,19.64
2023-05-12T18:49:06.449Z,19.44
2023-05-12T18:54:10.568Z,19.30
2023-05-12T18:59:15.218Z,19.16
2023-05-12T19:04:17.180Z,19.00
2023-05-12T19:09:23.949Z,19.50
2023-05-12T19:14:25.682Z,19.54
2023-05-12T19:19:27.352Z,18.83
2023-05-12T19:24:29.654Z,18.58
2023-05-12T19:29:32.693Z,18.41
2023-05-12T19:34:39.226Z,18.23
2023-05-12T19:39:40.912Z,18.10
2023-05-12T19:44:45.114Z,17.95
2023-05-12T19:49:46.856Z,17.80
2023-05-12T19:54:48.684Z,17.64
2023-05-12T19:59:55.242Z,17.53
2023-05-12T20:05:00.586Z,17.41
2023-05-12T20:10:03.051Z,17.30
2023-05-12T20:15:05.772Z,17.21
2023-05-12T20:20:08.213Z,17.06
2023-05-12T20:25:12.450Z,16.94
2023-05-12T20:30:14.552Z,16.86
2023-05-12T20:35:19.441Z,16.81
2023-05-12T20:40:21.589Z,16.67
2023-05-12T20:45:28.202Z,16.59
2023-05-12T20:50:32.175Z,16.44
2023-05-12T20:55:36.787Z,16.34
2023-05-12T21:00:41.600Z,16.15
2023-05-12T21:05:47.697Z,16.00
2023-05-12T21:10:49.712Z,15.85
2023-05-12T21:15:51.532Z,15.70
2023-05-12T21:20:55.442Z,15.54
2023-05-12T21:25:57.118Z,15.37
2023-05-12T21:30:59.082Z,15.24
2023-05-12T21:36:03.446Z,15.11
2023-05-12T21:41:07.749Z,15.02
2023-05-12T21:46:09.459Z,14.94
2023-05-12T21:51:13.659Z,14.87
2023-05-12T21:56:15.437Z,14.84
2023-05-12T22:01:18.396Z,14.80
2023-05-12T22:06:20.157Z,14.72
2023-05-12T22:11:25.064Z,14.63
2023-05-12T22:16:38.317Z,14.57
2023-05-12T22:21:43.439Z,14.48
2023-05-12T22:26:47.482Z,14.39
2023-05-12T22:31:49.318Z,14.21
2023-05-12T22:36:53.095Z,14.11
2023-05-12T22:41:54.735Z,14.04
2023-05-12T22:46:56.517Z,13.97
2023-05-12T22:51:58.521Z,13.84
2023-05-12T22:57:02.297Z,13.74
2023-05-12T23:02:04.925Z,13.65
2023-05-12T23:07:09.025Z,13.55
2023-05-12T23:12:11.306Z,13.45
2023-05-12T23:17:12.969Z,13.36
2023-05-12T23:22:14.674Z,13.30
2023-05-12T23:27:16.362Z,13.18
2023-05-12T23:32:20.407Z,13.11
2023-05-12T23:37:24.372Z,13.03
2023-05-12T23:42:28.316Z,12.95
2023-05-12T23:47:32.493Z,12.92
2023-05-12T23:52:34.228Z,12.84
2023-05-12T23:57:40.745Z,12.76
